Decoded Metar for KTYR (TYLER in TX, USA) (IATA:TYR) | Meteo·Mobile Aviation Weather
aviador You're here:

KTYR Decoded Metar

TYLER in TX, USA
Report Time2018-10-20 07:53:00
UTC Time2018-10-20 08:21:50
Flight Rules lifr LIFR
Wind350° at 06 kt
W.Decomp.*RWY 35: 6.0 kt HW 0.3 kt LCW
RWY 31: 4.8 kt HW 3.6 kt RCW
RWY 04: 3.6 kt HW 4.8 kt LCW
W.Rank350° ranks 9
Current wind is below 350° avg. (7.2)
Visibility9999 m
Phenomena:Mist
Clouds:Broken 004 Hf
Overcast 008 Hf
Expected CloudBase > 400 ft AGL from Temp-Dew spread
Ceiling400 ft
Temp15°C (ISA +1)
Dew Point14°C (94% RH)
AAT14.1°C
QNH1020 hPa
Density Alt646 ft
Elevation541 ft
Report Wrong Elevation
Raw Report
KTYR 200753Z AUTO 35006KT 10SM BR BKN004 OVC008 15/14 A3012 RMK
AO2 CIG 002V007 SLP197 T01500144=

Extra information for KTYR:More info

Metar Taf Metar & Taf Last 4 Metars F.Rules Stats Wind Profile Meteogram Temp Stats Airport Information Weather charts Add Link Nearby VenuesMetar ALERT Operation Metar Decoded Social comments

AIRNAV info for KTYR